createdAt,value
2019-05-22T00:01:14.860Z,10.10
2019-05-22T00:03:48.780Z,10.10
2019-05-22T00:06:20.508Z,10.10
2019-05-22T00:08:49.187Z,10.20
2019-05-22T00:11:18.800Z,10.20
2019-05-22T00:13:47.137Z,10.30
2019-05-22T00:16:15.494Z,10.40
2019-05-22T00:18:43.367Z,10.40
2019-05-22T00:21:12.199Z,10.50
2019-05-22T00:23:40.505Z,10.40
2019-05-22T00:26:08.127Z,10.50
2019-05-22T00:28:37.803Z,10.50
2019-05-22T00:31:06.282Z,10.60
2019-05-22T00:33:36.430Z,10.70
2019-05-22T00:36:06.112Z,10.80
2019-05-22T00:38:34.257Z,10.80
2019-05-22T00:41:07.122Z,10.90
2019-05-22T00:43:38.819Z,10.90
2019-05-22T00:46:07.371Z,11.00
2019-05-22T00:48:35.360Z,11.00
2019-05-22T00:51:25.378Z,11.10
2019-05-22T00:54:07.873Z,11.10
2019-05-22T00:56:51.511Z,11.20
2019-05-22T00:59:26.208Z,11.20
2019-05-22T01:01:56.633Z,11.30
2019-05-22T01:04:31.342Z,11.30
2019-05-22T01:07:00.285Z,11.30
2019-05-22T01:09:38.552Z,11.30
2019-05-22T01:12:13.195Z,11.30
2019-05-22T01:14:43.120Z,11.30
2019-05-22T01:17:11.939Z,11.30
2019-05-22T01:19:40.161Z,11.30
2019-05-22T01:22:09.518Z,11.30
2019-05-22T01:24:37.651Z,11.30
2019-05-22T01:27:07.053Z,11.40
2019-05-22T01:29:36.530Z,11.40
2019-05-22T01:32:16.110Z,11.40
2019-05-22T01:34:43.937Z,11.40
2019-05-22T01:37:13.921Z,11.40
2019-05-22T01:39:55.070Z,11.40
2019-05-22T01:42:29.661Z,11.40
2019-05-22T01:45:05.875Z,11.40
2019-05-22T01:47:44.099Z,11.50
2019-05-22T01:50:17.723Z,11.50
2019-05-22T01:52:47.747Z,11.50
2019-05-22T01:55:18.081Z,11.50
2019-05-22T01:57:47.187Z,11.50
2019-05-22T02:00:16.127Z,11.50
2019-05-22T02:02:46.182Z,11.40
2019-05-22T02:05:15.513Z,11.40
2019-05-22T02:07:44.951Z,11.50
2019-05-22T02:10:19.419Z,11.50
2019-05-22T02:12:52.167Z,11.50
2019-05-22T02:15:21.286Z,11.50
2019-05-22T02:17:49.719Z,11.60
2019-05-22T02:20:19.157Z,11.50
2019-05-22T02:22:49.307Z,11.50
2019-05-22T02:25:17.772Z,11.50
2019-05-22T02:27:45.595Z,11.50
2019-05-22T02:30:15.988Z,11.50
2019-05-22T02:32:44.298Z,11.50
2019-05-22T02:35:12.991Z,11.50
2019-05-22T02:37:42.152Z,11.50
2019-05-22T02:40:17.956Z,11.50
2019-05-22T02:42:46.205Z,11.50
2019-05-22T02:45:13.951Z,11.50
2019-05-22T02:47:41.849Z,11.50
2019-05-22T02:50:10.555Z,11.50
2019-05-22T02:52:38.086Z,11.50
2019-05-22T02:55:06.219Z,11.50
2019-05-22T02:57:35.178Z,11.50
2019-05-22T03:00:03.339Z,11.50
2019-05-22T03:02:31.847Z,11.50
2019-05-22T03:05:05.391Z,11.50
2019-05-22T03:07:33.112Z,11.50
2019-05-22T03:10:01.798Z,11.40
2019-05-22T03:12:31.854Z,11.40
2019-05-22T03:15:00.609Z,11.40
2019-05-22T03:17:30.436Z,11.40
2019-05-22T03:20:00.776Z,11.40
2019-05-22T03:22:36.157Z,11.30
2019-05-22T03:25:08.192Z,11.40
2019-05-22T03:27:42.653Z,11.30
2019-05-22T03:30:23.666Z,11.30
2019-05-22T03:32:53.040Z,11.30
2019-05-22T03:35:21.909Z,11.40
2019-05-22T03:37:50.084Z,11.40
2019-05-22T03:40:18.124Z,11.40
2019-05-22T03:42:48.512Z,11.40
2019-05-22T03:45:16.145Z,11.50
2019-05-22T03:47:45.548Z,11.50
2019-05-22T03:50:14.758Z,11.40
2019-05-22T03:52:43.151Z,11.40
2019-05-22T03:55:11.179Z,11.50
2019-05-22T03:57:39.323Z,11.40
2019-05-22T04:00:10.381Z,11.30
2019-05-22T04:02:38.136Z,11.40
2019-05-22T04:05:08.012Z,11.30
2019-05-22T04:07:35.558Z,11.40
2019-05-22T04:10:04.815Z,11.30
2019-05-22T04:12:32.537Z,11.30
2019-05-22T04:15:00.777Z,11.40
2019-05-22T04:17:30.060Z,11.30
2019-05-22T04:19:57.624Z,11.30
2019-05-22T04:22:25.253Z,11.30
2019-05-22T04:24:52.979Z,11.30
2019-05-22T04:27:22.043Z,11.30
2019-05-22T04:29:50.509Z,11.30
2019-05-22T04:32:37.274Z,11.30
2019-05-22T04:35:06.772Z,11.20
2019-05-22T04:37:34.957Z,11.20
2019-05-22T04:40:45.012Z,11.20
2019-05-22T04:43:13.285Z,11.30
2019-05-22T04:45:41.496Z,11.20
2019-05-22T04:48:09.711Z,11.30
2019-05-22T04:50:37.654Z,11.30
2019-05-22T04:53:05.696Z,11.30
2019-05-22T04:55:34.032Z,11.30
2019-05-22T04:58:03.886Z,11.30
2019-05-22T05:00:31.973Z,11.40
2019-05-22T05:03:00.128Z,11.30
2019-05-22T05:05:32.829Z,11.40
2019-05-22T05:08:01.438Z,11.40
2019-05-22T05:10:30.113Z,11.40
2019-05-22T05:12:58.482Z,11.40
2019-05-22T05:15:26.236Z,11.40
2019-05-22T05:17:54.000Z,11.50
2019-05-22T05:20:22.916Z,11.50
2019-05-22T05:22:50.821Z,11.50
2019-05-22T05:25:19.304Z,11.50
2019-05-22T05:27:47.437Z,11.60
2019-05-22T05:30:16.762Z,11.60
2019-05-22T05:32:44.776Z,11.70
2019-05-22T05:35:14.016Z,11.70
2019-05-22T05:38:07.509Z,11.80
2019-05-22T05:40:43.096Z,11.80
2019-05-22T05:43:12.290Z,11.90
2019-05-22T05:45:41.861Z,12.00
2019-05-22T05:48:11.606Z,12.00
2019-05-22T05:50:57.981Z,12.10
2019-05-22T05:53:26.368Z,12.20
2019-05-22T05:56:14.108Z,12.20
2019-05-22T05:58:42.444Z,12.30
2019-05-22T06:01:37.959Z,12.40
2019-05-22T06:04:05.926Z,12.40
2019-05-22T06:07:16.046Z,12.50
2019-05-22T06:09:44.855Z,12.50
2019-05-22T06:12:12.461Z,12.60
2019-05-22T06:14:42.131Z,12.70
2019-05-22T06:17:51.177Z,12.80
2019-05-22T06:20:21.036Z,12.90
2019-05-22T06:23:28.236Z,12.90
2019-05-22T06:25:57.624Z,12.80
2019-05-22T06:28:28.426Z,12.90
2019-05-22T06:30:57.590Z,13.10
2019-05-22T06:33:30.807Z,13.20
2019-05-22T06:36:01.671Z,13.30
2019-05-22T06:38:54.694Z,13.30
2019-05-22T06:41:24.863Z,13.40
2019-05-22T06:44:34.512Z,13.50
2019-05-22T06:47:03.621Z,13.50
2019-05-22T06:49:38.869Z,13.40
2019-05-22T06:52:07.619Z,13.50
2019-05-22T06:54:37.869Z,13.60
2019-05-22T06:57:11.736Z,13.80
2019-05-22T06:59:40.480Z,13.50
2019-05-22T07:02:11.733Z,13.50
2019-05-22T07:04:39.243Z,13.70
2019-05-22T07:07:11.600Z,13.80
2019-05-22T07:09:37.918Z,13.80
2019-05-22T07:12:05.505Z,13.70
2019-05-22T07:14:33.202Z,13.60
2019-05-22T07:17:00.952Z,13.60
2019-05-22T07:19:28.482Z,13.60
2019-05-22T07:21:56.156Z,13.60
2019-05-22T07:24:24.478Z,13.80
2019-05-22T07:26:52.328Z,13.90
2019-05-22T07:29:19.968Z,14.00
2019-05-22T07:31:47.969Z,14.00
2019-05-22T07:34:15.718Z,14.20
2019-05-22T07:36:44.486Z,14.20
2019-05-22T07:39:12.120Z,14.30
2019-05-22T07:41:43.124Z,14.60
2019-05-22T07:44:10.659Z,14.70
2019-05-22T07:46:39.018Z,14.70
2019-05-22T07:49:07.347Z,14.60
2019-05-22T07:51:51.442Z,14.80
2019-05-22T07:54:06.024Z,15.00
2019-05-22T07:56:35.214Z,14.90
2019-05-22T07:59:03.528Z,14.80
2019-05-22T08:01:32.902Z,15.00
2019-05-22T08:04:01.827Z,15.30
2019-05-22T08:06:29.358Z,15.40
2019-05-22T08:08:58.070Z,15.40
2019-05-22T08:11:25.651Z,15.60
2019-05-22T08:13:53.457Z,15.60
2019-05-22T08:16:21.368Z,15.60
2019-05-22T08:18:49.421Z,15.80
2019-05-22T08:21:18.234Z,15.90
2019-05-22T08:23:46.150Z,16.00
2019-05-22T08:26:16.019Z,16.00
2019-05-22T08:28:43.719Z,16.00
2019-05-22T08:31:12.474Z,16.00
2019-05-22T08:33:40.419Z,16.10
2019-05-22T08:36:08.647Z,16.20
2019-05-22T08:38:36.695Z,16.30
2019-05-22T08:41:06.518Z,16.40
2019-05-22T08:43:55.866Z,16.50
2019-05-22T08:46:05.299Z,16.70
2019-05-22T08:48:33.939Z,16.70
2019-05-22T08:51:02.226Z,16.90
2019-05-22T08:53:46.209Z,16.90
2019-05-22T08:56:00.116Z,16.90
2019-05-22T08:58:28.081Z,16.90
2019-05-22T09:00:56.575Z,17.00
2019-05-22T09:03:24.223Z,17.00
2019-05-22T09:05:52.322Z,17.10
2019-05-22T09:08:20.582Z,17.10
2019-05-22T09:10:48.676Z,17.30
2019-05-22T09:13:16.331Z,17.40
2019-05-22T09:15:44.162Z,17.60
2019-05-22T09:18:11.968Z,17.70
2019-05-22T09:20:48.837Z,17.80
2019-05-22T09:23:11.225Z,17.80
2019-05-22T09:25:38.785Z,17.80
2019-05-22T09:28:06.609Z,17.70
2019-05-22T09:30:34.476Z,18.00
2019-05-22T09:33:02.241Z,17.90
2019-05-22T09:35:30.566Z,17.80
2019-05-22T09:37:59.025Z,17.80
2019-05-22T09:40:26.695Z,18.20
2019-05-22T09:42:54.539Z,18.40
2019-05-22T09:45:22.186Z,18.70
2019-05-22T09:47:50.827Z,18.80
2019-05-22T09:50:19.002Z,19.00
2019-05-22T09:52:56.809Z,19.00
2019-05-22T09:55:16.782Z,19.00
2019-05-22T09:57:44.800Z,18.90
2019-05-22T10:00:14.779Z,19.00
2019-05-22T10:02:42.851Z,19.20
2019-05-22T10:05:11.335Z,19.30
2019-05-22T10:07:57.138Z,19.30
2019-05-22T10:10:09.301Z,19.20
2019-05-22T10:12:40.166Z,19.20
2019-05-22T10:15:09.352Z,19.00
2019-05-22T10:17:45.082Z,18.50
2019-05-22T10:20:13.078Z,18.80
2019-05-22T10:22:41.040Z,19.10
2019-05-22T10:25:15.984Z,19.30
2019-05-22T10:27:38.972Z,19.60
2019-05-22T10:30:07.833Z,19.20
2019-05-22T10:32:37.077Z,19.30
2019-05-22T10:35:06.503Z,19.30
2019-05-22T10:37:37.785Z,19.60
2019-05-22T10:40:05.987Z,20.00
2019-05-22T10:42:35.720Z,20.30
2019-05-22T10:45:05.473Z,20.50
2019-05-22T10:47:34.569Z,20.50
2019-05-22T10:50:03.549Z,20.40
2019-05-22T10:52:31.444Z,20.60
2019-05-22T10:54:59.359Z,21.00
2019-05-22T10:57:27.227Z,20.70
2019-05-22T10:59:55.184Z,20.00
2019-05-22T11:02:24.650Z,19.70
2019-05-22T11:04:52.589Z,19.90
2019-05-22T11:07:23.890Z,20.20
2019-05-22T11:09:54.723Z,20.30
2019-05-22T11:12:22.160Z,20.50
2019-05-22T11:14:49.861Z,20.70
2019-05-22T11:17:17.879Z,20.80
2019-05-22T11:19:45.317Z,21.20
2019-05-22T11:22:12.842Z,21.50
2019-05-22T11:24:40.254Z,21.10
2019-05-22T11:27:09.732Z,20.80
2019-05-22T11:29:37.507Z,20.30
2019-05-22T11:32:06.438Z,20.00
2019-05-22T11:34:34.109Z,19.80
2019-05-22T11:37:01.619Z,20.30
2019-05-22T11:39:38.790Z,20.80
2019-05-22T11:41:59.204Z,21.30
2019-05-22T11:44:27.200Z,21.90
2019-05-22T11:46:54.727Z,22.20
2019-05-22T11:49:22.961Z,22.20
2019-05-22T11:51:50.787Z,21.30
2019-05-22T11:54:18.322Z,21.10
2019-05-22T11:56:46.991Z,21.40
2019-05-22T11:59:14.789Z,21.60
2019-05-22T12:01:44.147Z,21.70
2019-05-22T12:04:12.418Z,21.40
2019-05-22T12:06:41.316Z,21.20
2019-05-22T12:09:10.846Z,21.50
2019-05-22T12:11:38.551Z,21.90
2019-05-22T12:14:08.506Z,21.90
2019-05-22T12:16:39.934Z,21.80
2019-05-22T12:19:08.755Z,21.60
2019-05-22T12:21:36.816Z,21.30
2019-05-22T12:24:05.747Z,21.00
2019-05-22T12:26:33.502Z,20.90
2019-05-22T12:29:01.255Z,21.30
2019-05-22T12:31:29.238Z,21.20
2019-05-22T12:33:56.900Z,20.90
2019-05-22T12:36:24.431Z,20.70
2019-05-22T12:38:52.777Z,21.00
2019-05-22T12:41:20.249Z,21.20
2019-05-22T12:43:48.208Z,21.80
2019-05-22T12:46:17.144Z,22.10
2019-05-22T12:48:45.015Z,22.20
2019-05-22T12:51:13.315Z,21.30
2019-05-22T12:53:41.494Z,21.00
2019-05-22T12:56:09.110Z,20.80
2019-05-22T12:58:37.598Z,21.00
2019-05-22T13:01:05.491Z,21.20
2019-05-22T13:03:34.774Z,21.00
2019-05-22T13:06:02.532Z,21.60
2019-05-22T13:08:30.314Z,22.10
2019-05-22T13:10:57.982Z,22.50
2019-05-22T13:13:26.255Z,22.90
2019-05-22T13:15:53.774Z,23.10
2019-05-22T13:18:22.088Z,23.20
2019-05-22T13:20:50.440Z,23.50
2019-05-22T13:23:22.049Z,23.70
2019-05-22T13:25:50.292Z,23.50
2019-05-22T13:28:18.364Z,23.50
2019-05-22T13:30:52.940Z,23.40
2019-05-22T13:33:24.199Z,23.20
2019-05-22T13:35:51.742Z,23.20
2019-05-22T13:38:19.493Z,23.00
2019-05-22T13:40:48.996Z,23.00
2019-05-22T13:43:17.283Z,23.10
2019-05-22T13:45:44.755Z,23.00
2019-05-22T13:48:12.512Z,22.30
2019-05-22T13:50:40.279Z,21.80
2019-05-22T13:53:10.270Z,21.80
2019-05-22T13:55:38.604Z,21.80
2019-05-22T13:58:07.017Z,21.50
2019-05-22T14:00:35.830Z,21.50
2019-05-22T14:03:03.728Z,21.90
2019-05-22T14:05:33.170Z,22.50
2019-05-22T14:08:00.844Z,22.80
2019-05-22T14:10:28.836Z,23.10
2019-05-22T14:12:56.501Z,22.70
2019-05-22T14:15:24.507Z,22.00
2019-05-22T14:17:52.162Z,21.60
2019-05-22T14:20:20.234Z,21.50
2019-05-22T14:22:58.600Z,21.90
2019-05-22T14:25:26.529Z,21.90
2019-05-22T14:27:54.353Z,21.90
2019-05-22T14:30:24.448Z,22.10
2019-05-22T14:32:52.103Z,22.00
2019-05-22T14:35:21.677Z,22.10
2019-05-22T14:37:49.374Z,21.90
2019-05-22T14:40:18.126Z,21.60
2019-05-22T14:42:46.043Z,21.30
2019-05-22T14:45:16.412Z,21.10
2019-05-22T14:47:44.049Z,20.80
2019-05-22T14:50:14.716Z,21.10
2019-05-22T14:53:06.469Z,21.20
2019-05-22T14:55:36.362Z,21.20
2019-05-22T14:58:04.801Z,21.20
2019-05-22T15:00:32.975Z,21.30
2019-05-22T15:03:00.740Z,20.90
2019-05-22T15:05:29.067Z,20.80
2019-05-22T15:07:57.024Z,20.90
2019-05-22T15:10:26.363Z,21.00
2019-05-22T15:13:07.120Z,20.90
2019-05-22T15:15:35.278Z,20.80
2019-05-22T15:18:03.337Z,20.90
2019-05-22T15:20:52.024Z,20.70
2019-05-22T15:23:22.526Z,20.60
2019-05-22T15:25:51.161Z,20.50
2019-05-22T15:28:19.200Z,20.50
2019-05-22T15:30:46.849Z,20.50
2019-05-22T15:33:48.045Z,20.40
2019-05-22T15:36:18.586Z,20.40
2019-05-22T15:38:57.026Z,20.40
2019-05-22T15:41:28.182Z,20.50
2019-05-22T15:43:56.758Z,20.40
2019-05-22T15:46:24.823Z,20.30
2019-05-22T15:48:53.471Z,20.30
2019-05-22T15:51:29.696Z,20.20
2019-05-22T15:54:02.852Z,20.30
2019-05-22T15:56:35.521Z,20.50
2019-05-22T15:59:06.348Z,20.50
2019-05-22T16:01:39.619Z,20.50
2019-05-22T16:04:11.110Z,20.40
2019-05-22T16:06:38.853Z,20.70
2019-05-22T16:09:10.277Z,20.90
2019-05-22T16:11:38.257Z,20.90
2019-05-22T16:14:07.097Z,20.70
2019-05-22T16:16:36.039Z,20.40
2019-05-22T16:19:06.860Z,20.30
2019-05-22T16:21:37.820Z,20.30
2019-05-22T16:24:06.577Z,20.20
2019-05-22T16:26:35.171Z,20.10
2019-05-22T16:29:03.205Z,20.10
2019-05-22T16:31:32.064Z,20.30
2019-05-22T16:34:00.064Z,20.30
2019-05-22T16:36:29.003Z,20.10
2019-05-22T16:38:57.398Z,20.20
2019-05-22T16:41:27.393Z,20.30
2019-05-22T16:43:55.775Z,20.20
2019-05-22T16:46:25.122Z,20.20
2019-05-22T16:48:53.238Z,20.20
2019-05-22T16:51:21.707Z,20.00
2019-05-22T16:53:52.641Z,20.00
2019-05-22T16:56:22.664Z,20.10
2019-05-22T16:58:58.339Z,19.90
2019-05-22T17:01:26.697Z,19.90
2019-05-22T17:04:02.320Z,19.90
2019-05-22T17:06:33.970Z,20.00
2019-05-22T17:09:03.907Z,19.80
2019-05-22T17:11:35.341Z,19.80
2019-05-22T17:14:06.054Z,19.80
2019-05-22T17:16:40.809Z,19.90
2019-05-22T17:19:25.710Z,19.90
2019-05-22T17:21:41.665Z,19.80
2019-05-22T17:24:18.481Z,20.00
2019-05-22T17:26:49.670Z,20.00
2019-05-22T17:29:17.941Z,20.00
2019-05-22T17:31:45.958Z,20.00
2019-05-22T17:34:31.551Z,19.90
2019-05-22T17:37:05.591Z,19.90
2019-05-22T17:39:36.208Z,19.90
2019-05-22T17:42:07.298Z,19.80
2019-05-22T17:44:35.735Z,19.90
2019-05-22T17:47:06.317Z,19.90
2019-05-22T17:49:33.145Z,19.80
2019-05-22T17:52:01.038Z,19.80
2019-05-22T17:54:32.901Z,19.70
2019-05-22T17:57:01.355Z,19.70
2019-05-22T17:59:29.649Z,19.60
2019-05-22T18:01:57.636Z,19.60
2019-05-22T18:04:25.416Z,19.60
2019-05-22T18:06:55.205Z,19.40
2019-05-22T18:09:23.881Z,19.40
2019-05-22T18:11:51.673Z,19.40
2019-05-22T18:14:19.500Z,19.40
2019-05-22T18:16:47.061Z,19.40
2019-05-22T18:19:14.846Z,19.60
2019-05-22T18:21:43.122Z,19.60
2019-05-22T18:24:11.790Z,19.60
2019-05-22T18:26:39.604Z,19.50
2019-05-22T18:29:09.150Z,19.40
2019-05-22T18:31:36.846Z,19.40
2019-05-22T18:34:04.798Z,19.60
2019-05-22T18:36:33.471Z,19.60
2019-05-22T18:39:01.184Z,19.50
2019-05-22T18:41:29.135Z,19.40
2019-05-22T18:43:57.578Z,19.30
2019-05-22T18:46:25.111Z,19.20
2019-05-22T18:48:52.693Z,19.10
2019-05-22T18:51:20.997Z,18.90
2019-05-22T18:53:49.063Z,18.70
2019-05-22T18:56:16.983Z,18.70
2019-05-22T18:58:45.658Z,18.60
2019-05-22T19:01:16.233Z,18.50
2019-05-22T19:03:42.921Z,18.50
2019-05-22T19:06:11.714Z,18.20
2019-05-22T19:08:39.623Z,18.20
2019-05-22T19:11:07.205Z,18.10
2019-05-22T19:13:34.806Z,18.00
2019-05-22T19:16:03.354Z,17.90
2019-05-22T19:18:30.933Z,17.80
2019-05-22T19:20:58.862Z,17.80
2019-05-22T19:23:26.535Z,17.70
2019-05-22T19:25:54.388Z,17.60
2019-05-22T19:28:22.359Z,17.50
2019-05-22T19:30:49.932Z,17.40
2019-05-22T19:33:17.627Z,17.30
2019-05-22T19:35:45.237Z,17.20
2019-05-22T19:38:12.954Z,17.10
2019-05-22T19:40:40.811Z,17.00
2019-05-22T19:43:08.553Z,16.90
2019-05-22T19:45:36.371Z,16.80
2019-05-22T19:48:09.360Z,16.70
2019-05-22T19:50:37.183Z,16.60
2019-05-22T19:53:18.348Z,16.40
2019-05-22T19:55:35.264Z,16.20
2019-05-22T19:58:03.336Z,16.00
2019-05-22T20:00:31.038Z,16.00
2019-05-22T20:03:01.717Z,15.90
2019-05-22T20:05:29.927Z,15.80
2019-05-22T20:07:57.482Z,15.70
2019-05-22T20:10:25.356Z,15.50
2019-05-22T20:12:53.958Z,15.40
2019-05-22T20:15:22.011Z,15.30
2019-05-22T20:17:50.983Z,15.20
2019-05-22T20:20:19.239Z,15.10
2019-05-22T20:22:46.906Z,15.10
2019-05-22T20:25:14.888Z,15.00
2019-05-22T20:27:42.836Z,14.90
2019-05-22T20:30:20.666Z,14.90
2019-05-22T20:32:51.524Z,14.80
2019-05-22T20:35:21.860Z,14.80
2019-05-22T20:37:55.644Z,14.70
2019-05-22T20:40:24.438Z,14.60
2019-05-22T20:42:52.049Z,14.50
2019-05-22T20:45:23.338Z,14.40
2019-05-22T20:48:06.108Z,14.30
2019-05-22T20:50:34.876Z,14.30
2019-05-22T20:53:05.297Z,14.30
2019-05-22T20:55:33.835Z,14.10
2019-05-22T20:58:01.529Z,14.10
2019-05-22T21:00:31.331Z,14.00
2019-05-22T21:03:03.490Z,13.90
2019-05-22T21:05:31.538Z,13.90
2019-05-22T21:08:06.616Z,13.90
2019-05-22T21:10:35.091Z,13.80
2019-05-22T21:13:04.817Z,13.70
2019-05-22T21:15:33.421Z,13.70
2019-05-22T21:18:03.054Z,13.60
2019-05-22T21:20:31.915Z,13.60
2019-05-22T21:23:00.683Z,13.60
2019-05-22T21:25:28.778Z,13.60
2019-05-22T21:27:56.390Z,13.60
2019-05-22T21:30:25.530Z,13.70
2019-05-22T21:32:53.218Z,13.70
2019-05-22T21:35:22.133Z,13.60
2019-05-22T21:37:49.838Z,13.50
2019-05-22T21:40:19.339Z,13.40
2019-05-22T21:42:48.198Z,13.40
2019-05-22T21:45:16.479Z,13.40
2019-05-22T21:47:45.474Z,13.30
2019-05-22T21:50:14.640Z,13.20
2019-05-22T21:52:43.113Z,13.10
2019-05-22T21:55:11.856Z,13.10
2019-05-22T21:57:40.245Z,13.10
2019-05-22T22:00:12.821Z,13.10
2019-05-22T22:02:46.157Z,13.00
2019-05-22T22:05:14.435Z,12.90
2019-05-22T22:07:43.200Z,12.90
2019-05-22T22:10:11.742Z,12.90
2019-05-22T22:12:41.053Z,12.80
2019-05-22T22:15:09.895Z,12.80
2019-05-22T22:17:38.853Z,12.80
2019-05-22T22:20:07.115Z,12.80
2019-05-22T22:22:36.153Z,12.70
2019-05-22T22:25:04.849Z,12.60
2019-05-22T22:27:33.230Z,12.50
2019-05-22T22:30:02.898Z,12.50
2019-05-22T22:32:31.784Z,12.40
2019-05-22T22:34:59.381Z,12.30
2019-05-22T22:37:28.413Z,12.30
2019-05-22T22:39:56.580Z,12.20
2019-05-22T22:42:27.893Z,12.20
2019-05-22T22:44:56.768Z,12.20
2019-05-22T22:47:29.984Z,12.10
2019-05-22T22:49:57.621Z,12.10
2019-05-22T22:52:27.151Z,12.20
2019-05-22T22:54:55.735Z,12.10
2019-05-22T22:57:23.135Z,12.10
2019-05-22T22:59:50.997Z,12.10
2019-05-22T23:02:22.309Z,12.10
2019-05-22T23:04:50.442Z,12.00
2019-05-22T23:07:19.799Z,12.00
2019-05-22T23:09:48.028Z,11.90
2019-05-22T23:12:17.098Z,11.80
2019-05-22T23:14:50.231Z,11.80
2019-05-22T23:17:18.219Z,11.80
2019-05-22T23:19:51.027Z,11.80
2019-05-22T23:22:27.230Z,11.80
2019-05-22T23:24:55.831Z,11.70
2019-05-22T23:27:24.643Z,11.70
2019-05-22T23:29:53.595Z,11.60
2019-05-22T23:32:22.102Z,11.60
2019-05-22T23:34:50.290Z,11.50
2019-05-22T23:37:21.788Z,11.50
2019-05-22T23:39:52.403Z,11.50
2019-05-22T23:42:26.462Z,11.50
2019-05-22T23:44:56.476Z,11.40
2019-05-22T23:47:24.369Z,11.40
2019-05-22T23:49:53.057Z,11.40
2019-05-22T23:52:20.725Z,11.40
2019-05-22T23:54:48.834Z,11.40
2019-05-22T23:57:17.752Z,11.30
2019-05-22T23:59:48.665Z,11.30
